sensor_id;sensor_type;location;lat;lon;timestamp;pressure;altitude;pressure_sealevel;temperature;humidity
64521;BME280;50896;46.714;17.322;2023-04-22T00:02:21;100305.44;;;8.04;100.00
64521;BME280;50896;46.714;17.322;2023-04-22T00:04:49;100311.56;;;8.04;100.00
64521;BME280;50896;46.714;17.322;2023-04-22T00:07:17;100323.56;;;7.99;100.00
64521;BME280;50896;46.714;17.322;2023-04-22T00:09:44;100315.22;;;7.94;100.00
64521;BME280;50896;46.714;17.322;2023-04-22T00:12:11;100321.81;;;7.90;100.00
64521;BME280;50896;46.714;17.322;2023-04-22T00:14:38;100318.63;;;7.86;100.00
64521;BME280;50896;46.714;17.322;2023-04-22T00:17:05;100321.44;;;7.84;100.00
64521;BME280;50896;46.714;17.322;2023-04-22T00:19:33;100319.06;;;7.81;100.00
64521;BME280;50896;46.714;17.322;2023-04-22T00:22:02;100312.84;;;7.73;100.00
64521;BME280;50896;46.714;17.322;2023-04-22T00:24:29;100314.50;;;7.74;100.00
64521;BME280;50896;46.714;17.322;2023-04-22T00:26:56;100300.34;;;7.65;100.00
64521;BME280;50896;46.714;17.322;2023-04-22T00:29:24;100307.28;;;7.66;100.00
64521;BME280;50896;46.714;17.322;2023-04-22T00:31:51;100313.13;;;7.69;100.00
64521;BME280;50896;46.714;17.322;2023-04-22T00:34:18;100309.81;;;7.67;100.00
64521;BME280;50896;46.714;17.322;2023-04-22T00:36:45;100306.59;;;7.64;100.00
64521;BME280;50896;46.714;17.322;2023-04-22T00:39:12;100313.84;;;7.62;100.00
64521;BME280;50896;46.714;17.322;2023-04-22T00:41:39;100309.16;;;7.56;100.00
64521;BME280;50896;46.714;17.322;2023-04-22T00:44:10;100313.75;;;7.53;100.00
64521;BME280;50896;46.714;17.322;2023-04-22T00:46:38;100309.84;;;7.48;100.00
64521;BME280;50896;46.714;17.322;2023-04-22T00:49:06;100315.75;;;7.42;100.00
64521;BME280;50896;46.714;17.322;2023-04-22T00:51:33;100316.03;;;7.39;100.00
64521;BME280;50896;46.714;17.322;2023-04-22T00:54:00;100310.19;;;7.35;100.00
64521;BME280;50896;46.714;17.322;2023-04-22T00:56:28;100303.41;;;7.23;100.00
64521;BME280;50896;46.714;17.322;2023-04-22T00:58:57;100311.31;;;7.23;100.00
64521;BME280;50896;46.714;17.322;2023-04-22T01:01:25;100308.00;;;7.21;100.00
64521;BME280;50896;46.714;17.322;2023-04-22T01:03:52;100313.59;;;7.17;100.00
64521;BME280;50896;46.714;17.322;2023-04-22T01:06:21;100303.72;;;7.10;100.00
64521;BME280;50896;46.714;17.322;2023-04-22T01:08:49;100303.84;;;7.08;100.00
64521;BME280;50896;46.714;17.322;2023-04-22T01:11:17;100304.00;;;7.07;100.00
64521;BME280;50896;46.714;17.322;2023-04-22T01:13:44;100306.94;;;7.04;100.00
64521;BME280;50896;46.714;17.322;2023-04-22T01:16:12;100312.50;;;7.00;100.00
64521;BME280;50896;46.714;17.322;2023-04-22T01:18:38;100313.88;;;6.95;100.00
64521;BME280;50896;46.714;17.322;2023-04-22T01:21:05;100319.16;;;6.95;100.00
64521;BME280;50896;46.714;17.322;2023-04-22T01:23:32;100320.97;;;6.94;100.00
64521;BME280;50896;46.714;17.322;2023-04-22T01:25:59;100302.78;;;6.81;100.00
64521;BME280;50896;46.714;17.322;2023-04-22T01:28:27;100318.78;;;6.90;100.00
64521;BME280;50896;46.714;17.322;2023-04-22T01:30:54;100316.94;;;6.90;100.00
64521;BME280;50896;46.714;17.322;2023-04-22T01:33:22;100314.47;;;6.89;100.00
64521;BME280;50896;46.714;17.322;2023-04-22T01:35:49;100312.78;;;6.88;100.00
64521;BME280;50896;46.714;17.322;2023-04-22T01:38:16;100317.25;;;6.87;100.00
64521;BME280;50896;46.714;17.322;2023-04-22T01:40:43;100317.38;;;6.86;100.00
64521;BME280;50896;46.714;17.322;2023-04-22T01:43:09;100314.19;;;6.82;100.00
64521;BME280;50896;46.714;17.322;2023-04-22T01:45:37;100303.91;;;6.79;100.00
64521;BME280;50896;46.714;17.322;2023-04-22T01:48:04;100316.13;;;6.80;100.00
64521;BME280;50896;46.714;17.322;2023-04-22T01:50:36;100314.47;;;6.79;100.00
64521;BME280;50896;46.714;17.322;2023-04-22T01:53:02;100306.41;;;6.71;100.00
64521;BME280;50896;46.714;17.322;2023-04-22T01:55:29;100317.38;;;6.76;100.00
64521;BME280;50896;46.714;17.322;2023-04-22T01:57:56;100296.66;;;6.61;100.00
64521;BME280;50896;46.714;17.322;2023-04-22T02:00:23;100310.44;;;6.65;100.00
64521;BME280;50896;46.714;17.322;2023-04-22T02:02:50;100299.88;;;6.55;100.00
64521;BME280;50896;46.714;17.322;2023-04-22T02:05:17;100312.78;;;6.58;100.00
64521;BME280;50896;46.714;17.322;2023-04-22T02:07:45;100311.41;;;6.54;100.00
64521;BME280;50896;46.714;17.322;2023-04-22T02:10:14;100310.72;;;6.52;100.00
64521;BME280;50896;46.714;17.322;2023-04-22T02:12:41;100308.91;;;6.53;100.00
64521;BME280;50896;46.714;17.322;2023-04-22T02:15:09;100311.97;;;6.48;100.00
64521;BME280;50896;46.714;17.322;2023-04-22T02:17:36;100299.19;;;6.43;100.00
64521;BME280;50896;46.714;17.322;2023-04-22T02:20:04;100311.69;;;6.51;100.00
64521;BME280;50896;46.714;17.322;2023-04-22T02:22:31;100310.84;;;6.50;100.00
64521;BME280;50896;46.714;17.322;2023-04-22T02:24:58;100306.13;;;6.54;100.00
64521;BME280;50896;46.714;17.322;2023-04-22T02:27:27;100310.72;;;6.52;100.00
64521;BME280;50896;46.714;17.322;2023-04-22T02:29:53;100297.22;;;6.45;100.00
64521;BME280;50896;46.714;17.322;2023-04-22T02:32:20;100312.78;;;6.48;100.00
64521;BME280;50896;46.714;17.322;2023-04-22T02:34:47;100311.97;;;6.48;100.00
64521;BME280;50896;46.714;17.322;2023-04-22T02:37:14;100313.50;;;6.50;100.00
64521;BME280;50896;46.714;17.322;2023-04-22T02:39:41;100314.47;;;6.49;100.00
64521;BME280;50896;46.714;17.322;2023-04-22T02:42:08;100306.97;;;6.45;100.00
64521;BME280;50896;46.714;17.322;2023-04-22T02:44:35;100314.47;;;6.49;100.00
64521;BME280;50896;46.714;17.322;2023-04-22T02:47:02;100307.38;;;6.50;100.00
64521;BME280;50896;46.714;17.322;2023-04-22T02:49:29;100302.38;;;6.47;100.00
64521;BME280;50896;46.714;17.322;2023-04-22T02:51:56;100306.69;;;6.48;100.00
64521;BME280;50896;46.714;17.322;2023-04-22T02:54:23;100304.31;;;6.45;100.00
64521;BME280;50896;46.714;17.322;2023-04-22T02:56:50;100302.50;;;6.36;100.00
64521;BME280;50896;46.714;17.322;2023-04-22T02:59:17;100289.16;;;6.27;100.00
64521;BME280;50896;46.714;17.322;2023-04-22T03:01:44;100300.69;;;6.36;100.00
64521;BME280;50896;46.714;17.322;2023-04-22T03:04:21;100299.44;;;6.30;100.00
64521;BME280;50896;46.714;17.322;2023-04-22T03:06:48;100302.06;;;6.30;100.00
64521;BME280;50896;46.714;17.322;2023-04-22T03:09:15;100306.53;;;6.30;100.00
64521;BME280;50896;46.714;17.322;2023-04-22T03:11:43;100306.53;;;6.30;100.00
64521;BME280;50896;46.714;17.322;2023-04-22T03:14:09;100304.16;;;6.27;100.00
64521;BME280;50896;46.714;17.322;2023-04-22T03:16:37;100303.16;;;6.18;100.00
64521;BME280;50896;46.714;17.322;2023-04-22T03:19:04;100310.56;;;6.24;100.00
64521;BME280;50896;46.714;17.322;2023-04-22T03:21:31;100307.34;;;6.21;100.00
64521;BME280;50896;46.714;17.322;2023-04-22T03:23:59;100313.72;;;6.28;100.00
64521;BME280;50896;46.714;17.322;2023-04-22T03:26:30;100306.25;;;6.33;100.00
64521;BME280;50896;46.714;17.322;2023-04-22T03:28:57;100312.25;;;6.45;100.00
64521;BME280;50896;46.714;17.322;2023-04-22T03:31:24;100311.97;;;6.48;100.00
64521;BME280;50896;46.714;17.322;2023-04-22T03:33:51;100315.28;;;6.50;100.00
64521;BME280;50896;46.714;17.322;2023-04-22T03:36:25;100319.16;;;6.46;100.00
64521;BME280;50896;46.714;17.322;2023-04-22T03:38:53;100317.94;;;6.50;100.00
64521;BME280;50896;46.714;17.322;2023-04-22T03:41:21;100327.94;;;6.46;100.00
64521;BME280;50896;46.714;17.322;2023-04-22T03:43:49;100316.66;;;6.44;100.00
64521;BME280;50896;46.714;17.322;2023-04-22T03:46:16;100319.59;;;6.41;100.00
64521;BME280;50896;46.714;17.322;2023-04-22T03:48:51;100323.06;;;6.42;100.00
64521;BME280;50896;46.714;17.322;2023-04-22T03:51:32;100321.13;;;6.34;100.00
64521;BME280;50896;46.714;17.322;2023-04-22T03:54:02;100318.91;;;6.39;100.00
64521;BME280;50896;46.714;17.322;2023-04-22T03:56:32;100323.63;;;6.36;100.00
64521;BME280;50896;46.714;17.322;2023-04-22T03:59:00;100324.28;;;6.28;100.00
64521;BME280;50896;46.714;17.322;2023-04-22T04:01:27;100323.75;;;6.24;100.00
64521;BME280;50896;46.714;17.322;2023-04-22T04:03:57;100327.50;;;6.22;100.00
64521;BME280;50896;46.714;17.322;2023-04-22T04:06:32;100315.94;;;6.13;100.00
64521;BME280;50896;46.714;17.322;2023-04-22T04:08:59;100326.78;;;6.10;100.00
64521;BME280;50896;46.714;17.322;2023-04-22T04:11:27;100330.94;;;6.12;100.00
64521;BME280;50896;46.714;17.322;2023-04-22T04:13:54;100341.25;;;6.15;100.00
64521;BME280;50896;46.714;17.322;2023-04-22T04:16:29;100334.97;;;6.16;100.00
64521;BME280;50896;46.714;17.322;2023-04-22T04:19:04;100333.06;;;6.19;100.00
64521;BME280;50896;46.714;17.322;2023-04-22T04:21:34;100335.13;;;6.25;100.00
64521;BME280;50896;46.714;17.322;2023-04-22T04:24:04;100340.84;;;6.30;100.00
64521;BME280;50896;46.714;17.322;2023-04-22T04:26:35;100338.66;;;6.35;100.00
64521;BME280;50896;46.714;17.322;2023-04-22T04:29:11;100340.72;;;6.41;100.00
64521;BME280;50896;46.714;17.322;2023-04-22T04:31:44;100339.91;;;6.50;100.00
64521;BME280;50896;46.714;17.322;2023-04-22T04:34:11;100331.84;;;6.52;100.00
64521;BME280;50896;46.714;17.322;2023-04-22T04:36:39;100329.22;;;6.62;100.00
64521;BME280;50896;46.714;17.322;2023-04-22T04:39:16;100333.94;;;6.68;100.00
64521;BME280;50896;46.714;17.322;2023-04-22T04:41:43;100339.50;;;6.75;100.00
64521;BME280;50896;46.714;17.322;2023-04-22T04:44:10;100346.75;;;6.82;100.00
64521;BME280;50896;46.714;17.322;2023-04-22T04:46:38;100348.53;;;6.92;100.00
64521;BME280;50896;46.714;17.322;2023-04-22T04:49:06;100338.78;;;7.02;100.00
64521;BME280;50896;46.714;17.322;2023-04-22T04:51:43;100345.16;;;7.19;100.00
64521;BME280;50896;46.714;17.322;2023-04-22T04:54:11;100343.47;;;7.28;100.00
64521;BME280;50896;46.714;17.322;2023-04-22T04:56:39;100343.75;;;7.34;100.00
64521;BME280;50896;46.714;17.322;2023-04-22T04:59:08;100353.31;;;7.45;100.00
64521;BME280;50896;46.714;17.322;2023-04-22T05:01:35;100352.44;;;7.55;100.00
64521;BME280;50896;46.714;17.322;2023-04-22T05:04:06;100349.34;;;7.69;100.00
64521;BME280;50896;46.714;17.322;2023-04-22T05:06:37;100349.44;;;7.87;100.00
64521;BME280;50896;46.714;17.322;2023-04-22T05:09:04;100331.81;;;7.96;100.00
64521;BME280;50896;46.714;17.322;2023-04-22T05:11:31;100337.41;;;8.20;100.00
64521;BME280;50896;46.714;17.322;2023-04-22T05:13:59;100348.16;;;8.37;100.00
64521;BME280;50896;46.714;17.322;2023-04-22T05:16:33;100349.34;;;8.52;100.00
64521;BME280;50896;46.714;17.322;2023-04-22T05:19:01;100343.13;;;8.62;100.00
64521;BME280;50896;46.714;17.322;2023-04-22T05:21:28;100338.81;;;8.79;100.00
64521;BME280;50896;46.714;17.322;2023-04-22T05:23:55;100343.72;;;8.92;100.00
64521;BME280;50896;46.714;17.322;2023-04-22T05:26:23;100351.31;;;9.04;100.00
64521;BME280;50896;46.714;17.322;2023-04-22T05:28:50;100354.84;;;9.13;100.00
64521;BME280;50896;46.714;17.322;2023-04-22T05:31:17;100343.91;;;9.16;100.00
64521;BME280;50896;46.714;17.322;2023-04-22T05:33:45;100353.81;;;9.32;100.00
64521;BME280;50896;46.714;17.322;2023-04-22T05:36:12;100352.06;;;9.41;100.00
64521;BME280;50896;46.714;17.322;2023-04-22T05:38:39;100342.84;;;9.53;100.00
64521;BME280;50896;46.714;17.322;2023-04-22T05:41:06;100355.16;;;9.63;100.00
64521;BME280;50896;46.714;17.322;2023-04-22T05:43:34;100356.56;;;9.75;100.00
64521;BME280;50896;46.714;17.322;2023-04-22T05:46:13;100353.28;;;9.81;100.00
64521;BME280;50896;46.714;17.322;2023-04-22T05:48:41;100359.63;;;9.88;100.00
64521;BME280;50896;46.714;17.322;2023-04-22T05:51:19;100354.19;;;9.98;100.00
64521;BME280;50896;46.714;17.322;2023-04-22T05:53:46;100349.38;;;10.10;100.00
64521;BME280;50896;46.714;17.322;2023-04-22T05:56:13;100359.06;;;10.19;100.00
64521;BME280;50896;46.714;17.322;2023-04-22T05:58:40;100365.75;;;10.32;100.00
64521;BME280;50896;46.714;17.322;2023-04-22T06:01:10;100368.09;;;10.35;100.00
64521;BME280;50896;46.714;17.322;2023-04-22T06:03:55;100360.66;;;10.38;100.00
64521;BME280;50896;46.714;17.322;2023-04-22T06:06:24;100365.81;;;10.40;100.00
64521;BME280;50896;46.714;17.322;2023-04-22T06:08:51;100369.81;;;10.44;100.00
64521;BME280;50896;46.714;17.322;2023-04-22T06:11:18;100357.84;;;10.48;100.00
64521;BME280;50896;46.714;17.322;2023-04-22T06:13:45;100375.78;;;10.54;100.00
64521;BME280;50896;46.714;17.322;2023-04-22T06:16:12;100372.63;;;10.59;100.00
64521;BME280;50896;46.714;17.322;2023-04-22T06:18:39;100365.19;;;10.63;100.00
64521;BME280;50896;46.714;17.322;2023-04-22T06:21:11;100371.34;;;10.80;100.00
64521;BME280;50896;46.714;17.322;2023-04-22T06:23:38;100375.34;;;10.84;100.00
64521;BME280;50896;46.714;17.322;2023-04-22T06:26:05;100375.00;;;10.87;100.00
64521;BME280;50896;46.714;17.322;2023-04-22T06:28:33;100370.03;;;10.84;100.00
64521;BME280;50896;46.714;17.322;2023-04-22T06:31:05;100379.19;;;10.98;100.00
64521;BME280;50896;46.714;17.322;2023-04-22T06:33:32;100384.16;;;11.09;100.00
64521;BME280;50896;46.714;17.322;2023-04-22T06:36:00;100378.50;;;11.12;100.00
64521;BME280;50896;46.714;17.322;2023-04-22T06:38:29;100376.53;;;11.22;100.00
64521;BME280;50896;46.714;17.322;2023-04-22T06:41:15;100375.34;;;11.33;100.00
64521;BME280;50896;46.714;17.322;2023-04-22T06:43:45;100379.34;;;11.37;100.00
64521;BME280;50896;46.714;17.322;2023-04-22T06:46:40;100364.72;;;11.33;100.00
64521;BME280;50896;46.714;17.322;2023-04-22T06:49:26;100360.38;;;11.24;100.00
64521;BME280;50896;46.714;17.322;2023-04-22T06:52:14;100379.81;;;11.49;100.00
64521;BME280;50896;46.714;17.322;2023-04-22T06:54:41;100374.66;;;11.56;100.00
64521;BME280;50896;46.714;17.322;2023-04-22T06:57:08;100379.13;;;11.55;100.00
64521;BME280;50896;46.714;17.322;2023-04-22T06:59:34;100379.28;;;11.62;100.00
64521;BME280;50896;46.714;17.322;2023-04-22T07:02:02;100378.78;;;11.67;100.00
64521;BME280;50896;46.714;17.322;2023-04-22T07:04:33;100385.44;;;11.71;100.00
64521;BME280;50896;46.714;17.322;2023-04-22T07:07:00;100387.06;;;11.72;100.00
64521;BME280;50896;46.714;17.322;2023-04-22T07:09:27;100383.25;;;11.74;100.00
64521;BME280;50896;46.714;17.322;2023-04-22T07:11:54;100387.59;;;11.75;100.00
64521;BME280;50896;46.714;17.322;2023-04-22T07:14:25;100371.94;;;11.72;100.00
64521;BME280;50896;46.714;17.322;2023-04-22T07:16:54;100385.25;;;11.80;100.00
64521;BME280;50896;46.714;17.322;2023-04-22T07:19:21;100376.91;;;11.84;100.00
64521;BME280;50896;46.714;17.322;2023-04-22T07:21:48;100376.06;;;11.83;100.00
64521;BME280;50896;46.714;17.322;2023-04-22T07:24:14;100378.06;;;11.89;100.00
64521;BME280;50896;46.714;17.322;2023-04-22T07:26:42;100373.06;;;11.86;100.00
64521;BME280;50896;46.714;17.322;2023-04-22T07:29:09;100382.53;;;11.97;100.00
64521;BME280;50896;46.714;17.322;2023-04-22T07:31:38;100380.91;;;11.96;100.00
64521;BME280;50896;46.714;17.322;2023-04-22T07:34:05;100380.22;;;11.94;100.00
64521;BME280;50896;46.714;17.322;2023-04-22T07:36:31;100382.34;;;12.07;100.00
64521;BME280;50896;46.714;17.322;2023-04-22T07:38:58;100378.03;;;12.06;100.00
64521;BME280;50896;46.714;17.322;2023-04-22T07:41:25;100386.50;;;12.09;100.00
64521;BME280;50896;46.714;17.322;2023-04-22T07:43:52;100378.31;;;12.11;100.00
64521;BME280;50896;46.714;17.322;2023-04-22T07:46:19;100371.97;;;12.20;100.00
64521;BME280;50896;46.714;17.322;2023-04-22T07:48:47;100379.09;;;12.28;100.00
64521;BME280;50896;46.714;17.322;2023-04-22T07:51:14;100383.19;;;12.39;100.00
64521;BME280;50896;46.714;17.322;2023-04-22T07:53:41;100390.69;;;12.43;100.00
64521;BME280;50896;46.714;17.322;2023-04-22T07:56:08;100384.47;;;12.51;100.00
64521;BME280;50896;46.714;17.322;2023-04-22T07:58:35;100386.72;;;12.62;100.00
64521;BME280;50896;46.714;17.322;2023-04-22T08:01:02;100378.72;;;12.62;100.00
64521;BME280;50896;46.714;17.322;2023-04-22T08:03:29;100392.50;;;12.74;100.00
64521;BME280;50896;46.714;17.322;2023-04-22T08:05:56;100389.09;;;12.80;100.00
64521;BME280;50896;46.714;17.322;2023-04-22T08:08:25;100389.09;;;12.80;100.00
64521;BME280;50896;46.714;17.322;2023-04-22T08:10:52;100394.63;;;12.79;100.00
64521;BME280;50896;46.714;17.322;2023-04-22T08:13:18;100397.59;;;12.84;100.00
64521;BME280;50896;46.714;17.322;2023-04-22T08:15:45;100399.91;;;12.87;100.00
64521;BME280;50896;46.714;17.322;2023-04-22T08:18:12;100395.94;;;12.83;100.00
64521;BME280;50896;46.714;17.322;2023-04-22T08:20:39;100389.88;;;12.89;100.00
64521;BME280;50896;46.714;17.322;2023-04-22T08:23:06;100385.69;;;12.95;100.00
64521;BME280;50896;46.714;17.322;2023-04-22T08:25:33;100388.25;;;13.03;100.00
64521;BME280;50896;46.714;17.322;2023-04-22T08:28:00;100387.75;;;13.08;100.00
64521;BME280;50896;46.714;17.322;2023-04-22T08:30:27;100392.53;;;13.12;100.00
64521;BME280;50896;46.714;17.322;2023-04-22T08:32:54;100380.84;;;13.13;100.00
64521;BME280;50896;46.714;17.322;2023-04-22T08:35:21;100394.59;;;13.25;100.00
64521;BME280;50896;46.714;17.322;2023-04-22T08:37:48;100383.81;;;13.19;100.00
64521;BME280;50896;46.714;17.322;2023-04-22T08:40:15;100389.25;;;13.25;100.00
64521;BME280;50896;46.714;17.322;2023-04-22T08:42:43;100393.03;;;13.31;100.00
64521;BME280;50896;46.714;17.322;2023-04-22T08:45:10;100381.25;;;13.25;100.00
64521;BME280;50896;46.714;17.322;2023-04-22T08:47:38;100389.88;;;13.36;100.00
64521;BME280;50896;46.714;17.322;2023-04-22T08:50:05;100392.19;;;13.39;100.00
64521;BME280;50896;46.714;17.322;2023-04-22T08:52:33;100394.09;;;13.45;100.00
64521;BME280;50896;46.714;17.322;2023-04-22T08:54:59;100398.25;;;13.47;100.00
64521;BME280;50896;46.714;17.322;2023-04-22T08:57:27;100397.06;;;13.50;100.00
64521;BME280;50896;46.714;17.322;2023-04-22T08:59:55;100378.63;;;13.40;100.00
64521;BME280;50896;46.714;17.322;2023-04-22T09:02:23;100394.50;;;13.57;100.00
64521;BME280;50896;46.714;17.322;2023-04-22T09:04:51;100393.13;;;13.61;100.00
64521;BME280;50896;46.714;17.322;2023-04-22T09:07:24;100392.94;;;13.62;100.00
64521;BME280;50896;46.714;17.322;2023-04-22T09:09:54;100387.22;;;13.65;100.00
64521;BME280;50896;46.714;17.322;2023-04-22T09:12:21;100383.00;;;13.71;100.00
64521;BME280;50896;46.714;17.322;2023-04-22T09:14:48;100376.75;;;13.79;100.00
64521;BME280;50896;46.714;17.322;2023-04-22T09:17:16;100384.94;;;13.92;100.00
64521;BME280;50896;46.714;17.322;2023-04-22T09:19:44;100379.41;;;13.94;100.00
64521;BME280;50896;46.714;17.322;2023-04-22T09:22:12;100376.44;;;14.04;100.00
64521;BME280;50896;46.714;17.322;2023-04-22T09:24:50;100374.88;;;14.09;100.00
64521;BME280;50896;46.714;17.322;2023-04-22T09:27:18;100371.38;;;14.09;100.00
64521;BME280;50896;46.714;17.322;2023-04-22T09:29:50;100377.91;;;14.21;100.00
64521;BME280;50896;46.714;17.322;2023-04-22T09:32:18;100370.25;;;14.18;92.31
64521;BME280;50896;46.714;17.322;2023-04-22T09:34:49;100364.81;;;14.26;88.97
64521;BME280;50896;46.714;17.322;2023-04-22T09:37:22;100363.78;;;14.27;88.19
64521;BME280;50896;46.714;17.322;2023-04-22T09:39:52;100361.09;;;14.27;80.18
64521;BME280;50896;46.714;17.322;2023-04-22T09:42:20;100352.25;;;14.27;78.95
64521;BME280;50896;46.714;17.322;2023-04-22T09:44:49;100358.13;;;14.37;86.45
64521;BME280;50896;46.714;17.322;2023-04-22T09:47:19;100357.66;;;14.48;87.98
64521;BME280;50896;46.714;17.322;2023-04-22T09:49:47;100349.56;;;14.42;86.86
64521;BME280;50896;46.714;17.322;2023-04-22T09:52:25;100353.94;;;14.49;88.85
64521;BME280;50896;46.714;17.322;2023-04-22T09:54:54;100355.81;;;14.49;87.18
64521;BME280;50896;46.714;17.322;2023-04-22T09:57:22;100350.38;;;14.42;88.22
64521;BME280;50896;46.714;17.322;2023-04-22T09:59:49;100351.72;;;14.53;86.00
64521;BME280;50896;46.714;17.322;2023-04-22T10:02:17;100344.53;;;14.53;86.59
64521;BME280;50896;46.714;17.322;2023-04-22T10:04:45;100354.13;;;14.63;85.86
64521;BME280;50896;46.714;17.322;2023-04-22T10:07:13;100327.84;;;14.51;88.95
64521;BME280;50896;46.714;17.322;2023-04-22T10:09:40;100333.44;;;14.57;88.68
64521;BME280;50896;46.714;17.322;2023-04-22T10:12:07;100335.00;;;14.66;91.98
64521;BME280;50896;46.714;17.322;2023-04-22T10:14:34;100332.09;;;14.82;87.21
64521;BME280;50896;46.714;17.322;2023-04-22T10:17:01;100335.91;;;14.95;83.80
64521;BME280;50896;46.714;17.322;2023-04-22T10:19:31;100324.88;;;15.04;80.21
64521;BME280;50896;46.714;17.322;2023-04-22T10:22:01;100318.19;;;15.22;80.64
64521;BME280;50896;46.714;17.322;2023-04-22T10:24:34;100320.50;;;15.32;78.96
64521;BME280;50896;46.714;17.322;2023-04-22T10:27:03;100311.25;;;15.34;79.42
64521;BME280;50896;46.714;17.322;2023-04-22T10:29:36;100317.25;;;15.36;77.45
64521;BME280;50896;46.714;17.322;2023-04-22T10:34:36;100307.66;;;15.49;73.39
64521;BME280;50896;46.714;17.322;2023-04-22T10:37:08;100304.63;;;15.59;69.45
64521;BME280;50896;46.714;17.322;2023-04-22T10:39:38;100310.13;;;15.50;71.13
64521;BME280;50896;46.714;17.322;2023-04-22T10:42:10;100298.31;;;15.38;71.06
64521;BME280;50896;46.714;17.322;2023-04-22T10:44:50;100298.06;;;15.33;72.56
64521;BME280;50896;46.714;17.322;2023-04-22T10:47:31;100307.25;;;15.17;79.10
64521;BME280;50896;46.714;17.322;2023-04-22T10:50:25;100308.66;;;15.13;79.93
64521;BME280;50896;46.714;17.322;2023-04-22T10:53:33;100305.84;;;15.21;81.89
64521;BME280;50896;46.714;17.322;2023-04-22T10:55:51;100301.41;;;15.42;82.50
64521;BME280;50896;46.714;17.322;2023-04-22T10:58:20;100299.22;;;15.52;81.31
64521;BME280;50896;46.714;17.322;2023-04-22T11:00:47;100305.06;;;15.69;78.28
64521;BME280;50896;46.714;17.322;2023-04-22T11:03:25;100288.69;;;15.85;87.30
64521;BME280;50896;46.714;17.322;2023-04-22T11:06:13;100293.88;;;16.00;77.30
64521;BME280;50896;46.714;17.322;2023-04-22T11:08:45;100294.34;;;16.11;72.92
64521;BME280;50896;46.714;17.322;2023-04-22T11:11:15;100285.47;;;16.17;67.44
64521;BME280;50896;46.714;17.322;2023-04-22T11:13:43;100283.25;;;16.27;70.52
64521;BME280;50896;46.714;17.322;2023-04-22T11:16:10;100284.13;;;16.41;69.70
64521;BME280;50896;46.714;17.322;2023-04-22T11:18:37;100287.41;;;16.50;64.63
64521;BME280;50896;46.714;17.322;2023-04-22T11:21:05;100268.00;;;16.54;63.12
64521;BME280;50896;46.714;17.322;2023-04-22T11:23:33;100265.09;;;16.36;65.19
64521;BME280;50896;46.714;17.322;2023-04-22T11:26:02;100272.97;;;16.44;70.99
64521;BME280;50896;46.714;17.322;2023-04-22T11:28:30;100273.97;;;16.23;71.40
64521;BME280;50896;46.714;17.322;2023-04-22T11:31:04;100273.31;;;16.08;71.03
64521;BME280;50896;46.714;17.322;2023-04-22T11:33:32;100270.13;;;15.91;74.28
64521;BME280;50896;46.714;17.322;2023-04-22T11:36:00;100267.56;;;16.17;76.28
64521;BME280;50896;46.714;17.322;2023-04-22T11:38:27;100262.00;;;16.39;79.34
64521;BME280;50896;46.714;17.322;2023-04-22T11:40:55;100258.53;;;16.65;82.37
64521;BME280;50896;46.714;17.322;2023-04-22T11:43:24;100253.59;;;16.89;70.99
64521;BME280;50896;46.714;17.322;2023-04-22T11:45:53;100249.84;;;17.03;68.00
64521;BME280;50896;46.714;17.322;2023-04-22T11:48:21;100254.56;;;17.28;64.47
64521;BME280;50896;46.714;17.322;2023-04-22T11:50:48;100253.09;;;17.46;64.02
64521;BME280;50896;46.714;17.322;2023-04-22T11:53:20;100254.25;;;17.63;61.84
64521;BME280;50896;46.714;17.322;2023-04-22T11:55:50;100244.72;;;17.67;60.51
64521;BME280;50896;46.714;17.322;2023-04-22T11:58:22;100247.28;;;17.49;61.81
64521;BME280;50896;46.714;17.322;2023-04-22T12:00:50;100246.66;;;17.47;61.01
64521;BME280;50896;46.714;17.322;2023-04-22T12:03:20;100247.31;;;17.42;63.91
64521;BME280;50896;46.714;17.322;2023-04-22T12:05:55;100251.88;;;17.35;63.27
64521;BME280;50896;46.714;17.322;2023-04-22T12:08:34;100247.97;;;17.24;65.32
64521;BME280;50896;46.714;17.322;2023-04-22T12:11:04;100252.50;;;17.30;57.87
64521;BME280;50896;46.714;17.322;2023-04-22T12:16:09;100235.53;;;17.36;57.46
64521;BME280;50896;46.714;17.322;2023-04-22T12:18:53;100246.09;;;17.31;58.79
64521;BME280;50896;46.714;17.322;2023-04-22T12:21:21;100243.03;;;17.14;58.78
64521;BME280;50896;46.714;17.322;2023-04-22T12:24:08;100236.22;;;17.12;59.07
64521;BME280;50896;46.714;17.322;2023-04-22T12:26:36;100237.06;;;17.12;58.33
64521;BME280;50896;46.714;17.322;2023-04-22T12:29:06;100237.28;;;17.04;58.81
64521;BME280;50896;46.714;17.322;2023-04-22T12:31:32;100236.44;;;16.97;59.57
64521;BME280;50896;46.714;17.322;2023-04-22T12:33:59;100234.59;;;16.90;59.10
64521;BME280;50896;46.714;17.322;2023-04-22T12:36:28;100235.19;;;16.72;62.55
64521;BME280;50896;46.714;17.322;2023-04-22T12:38:55;100238.50;;;16.68;67.78
64521;BME280;50896;46.714;17.322;2023-04-22T12:41:21;100231.69;;;16.65;67.41
64521;BME280;50896;46.714;17.322;2023-04-22T12:43:49;100228.81;;;16.67;67.87
64521;BME280;50896;46.714;17.322;2023-04-22T12:46:16;100233.75;;;16.56;70.01
64521;BME280;50896;46.714;17.322;2023-04-22T12:48:42;100229.41;;;16.55;69.32
64521;BME280;50896;46.714;17.322;2023-04-22T12:51:09;100228.59;;;16.55;67.04
64521;BME280;50896;46.714;17.322;2023-04-22T12:53:36;100224.88;;;16.49;62.09